Flugplatz Hahnweide

EDST · 巴登-符腾堡, 德国

罗盘
风向 的 风向 070° Flugplatz Hahnweide 7/25
风: 9 kt, 3 beaufort

9 kt

改变
0 1.000 2.000 3.000 4.000 5.000
OVC 100 ft
METAR ETHN 021220Z 07009KT 2200 -DZ BR OVC001 01/00 Q1017 RED

METAR Flugplatz Hahnweide - EDST

Flugplatz Hahnweide是,德国中的小机场。 该机场有2条跑道: 7/25 和 13/31. 该领域的国际民航组织标志是EDST.

这份报告是针对2022年12月2日 13:20, 当地时间在Niederstetten Army Air Base进行的。

机场观察

风向为070°,速度为9 kt。

可见度为2,2 km。

有乌云密布在100 ft的高度。 破损或更高的上限为100 ft。

当前天气为光 细雨, 薄雾。 温度为1 °C,阵风为-5 °C。 海平面上的气压为1017 hPa (QNH)。

白天

今天,太阳从07:54升起,在16:28降落。 这适用于Flugplatz Hahnweide,世界夏令时可能有所不同。 当地时间与世界标准时间之间的时差为+1 小时。 当前,没有夏令时有效。

公司介绍

我们没有关于这个机场的公司信息。

体会

到Vliegles.nl去找飞行课程,跳伞和其他飞行体验。 浏览页面,了解Flugplatz Hahnweide附近所有可用的活动。 你也可以使用搜索功能来寻找你所在地附近的特定飞行课程、跳伞或其他飞行体验。

跑道

Id 标题 侧风 逆风 侧风 %
7/25 070°-250° 9 kt 0 %
13/31 130°-310° 8 kt 5 kt 87 %

逆风成分最大的方向会被突出显示,并用于横风计算。 这并不一定意味着这个方向在使用。

乌云

100 ft OVC 乌云密布

温度 & 天气

天气 光 细雨
薄雾
温度 1 °C
露点 0 °C
相对湿度 93%
风寒 -5 °C
Kp-index 1 (0-9)

白天

日出
07:55
中午
12:09
日落
16:23 (2:52)

小工具

你想在你的网站上有一个关于Flugplatz Hahnweide的当前航空天气(METAR)的小部件吗?

显示HTML代码

我们和第三方通过cookies跟踪您在我们网站上的互联网行为。如果你继续,我们认为你同意我们的饼干政策